createdAt,value
2022-08-11T00:01:53.847Z,21.65
2022-08-11T00:04:24.836Z,21.58
2022-08-11T00:06:52.914Z,21.67
2022-08-11T00:09:22.413Z,21.68
2022-08-11T00:11:52.568Z,21.60
2022-08-11T00:14:23.067Z,21.55
2022-08-11T00:17:01.371Z,21.49
2022-08-11T00:20:12.401Z,21.54
2022-08-11T00:22:21.559Z,21.43
2022-08-11T00:24:53.342Z,21.39
2022-08-11T00:27:34.558Z,21.48
2022-08-11T00:30:01.369Z,21.39
2022-08-11T00:32:28.816Z,21.42
2022-08-11T00:35:50.907Z,21.35
2022-08-11T00:37:49.593Z,21.51
2022-08-11T00:40:24.103Z,21.56
2022-08-11T00:43:21.537Z,21.52
2022-08-11T00:46:13.979Z,21.34
2022-08-11T00:49:07.032Z,21.31
2022-08-11T00:52:03.774Z,21.24
2022-08-11T00:55:07.883Z,21.12
2022-08-11T00:57:47.487Z,21.17
2022-08-11T01:00:19.875Z,21.17
2022-08-11T01:03:05.987Z,21.18
2022-08-11T01:05:38.591Z,21.24
2022-08-11T01:08:08.037Z,21.36
2022-08-11T01:10:53.743Z,21.28
2022-08-11T01:13:38.990Z,21.22
2022-08-11T01:16:17.896Z,21.20
2022-08-11T01:19:05.006Z,21.19
2022-08-11T01:22:13.005Z,21.03
2022-08-11T01:24:57.367Z,20.85
2022-08-11T01:27:44.753Z,20.81
2022-08-11T01:30:41.119Z,20.76
2022-08-11T01:33:44.521Z,20.76
2022-08-11T01:36:42.325Z,20.65
2022-08-11T01:39:37.281Z,20.60
2022-08-11T01:42:47.535Z,20.65
2022-08-11T01:45:26.513Z,20.64
2022-08-11T01:48:03.407Z,20.59
2022-08-11T01:51:00.680Z,20.58
2022-08-11T01:53:51.575Z,20.53
2022-08-11T01:56:23.965Z,20.48
2022-08-11T01:59:07.347Z,20.49
2022-08-11T02:01:36.644Z,20.51
2022-08-11T02:04:31.623Z,20.49
2022-08-11T02:07:08.815Z,20.47
2022-08-11T02:10:01.734Z,20.57
2022-08-11T02:12:42.097Z,20.45
2022-08-11T02:15:29.169Z,20.49
2022-08-11T02:18:06.602Z,20.51
2022-08-11T02:21:02.813Z,20.53
2022-08-11T02:24:06.579Z,20.44
2022-08-11T02:26:45.251Z,20.50
2022-08-11T02:29:32.381Z,20.39
2022-08-11T02:32:35.214Z,20.44
2022-08-11T02:35:28.559Z,20.46
2022-08-11T02:38:08.736Z,20.54
2022-08-11T02:40:41.034Z,20.52
2022-08-11T02:43:18.104Z,20.43
2022-08-11T02:45:49.993Z,20.45
2022-08-11T02:49:12.051Z,20.29
2022-08-11T02:51:53.787Z,20.17
2022-08-11T02:54:32.782Z,20.08
2022-08-11T02:57:13.940Z,20.07
2022-08-11T02:59:50.254Z,20.04
2022-08-11T03:02:16.721Z,20.09
2022-08-11T03:04:55.777Z,20.12
2022-08-11T03:07:29.646Z,20.00
2022-08-11T03:10:23.486Z,19.91
2022-08-11T03:13:15.662Z,19.83
2022-08-11T03:16:14.632Z,19.74
2022-08-11T03:18:57.319Z,19.60
2022-08-11T03:22:01.443Z,19.57
2022-08-11T03:24:44.912Z,19.59
2022-08-11T03:27:36.839Z,19.57
2022-08-11T03:30:10.359Z,19.54
2022-08-11T03:33:27.331Z,19.47
2022-08-11T03:36:12.595Z,19.43
2022-08-11T03:39:06.087Z,19.35
2022-08-11T03:42:23.479Z,19.37
2022-08-11T03:45:03.491Z,19.37
2022-08-11T03:48:01.053Z,19.32
2022-08-11T03:50:39.684Z,19.26
2022-08-11T03:53:14.964Z,19.32
2022-08-11T03:56:06.424Z,19.38
2022-08-11T03:58:57.415Z,19.43
2022-08-11T04:01:38.642Z,19.58
2022-08-11T04:04:18.697Z,19.65
2022-08-11T04:07:17.680Z,19.69
2022-08-11T04:09:50.390Z,19.74
2022-08-11T04:12:35.513Z,19.77
2022-08-11T04:15:57.800Z,19.58
2022-08-11T04:18:45.317Z,19.78
2022-08-11T04:21:36.685Z,19.81
2022-08-11T04:24:34.972Z,19.79
2022-08-11T04:27:19.252Z,19.64
2022-08-11T04:30:05.723Z,19.76
2022-08-11T04:32:41.249Z,19.64
2022-08-11T04:35:33.302Z,19.71
2022-08-11T04:38:11.800Z,19.65
2022-08-11T04:41:16.363Z,19.80
2022-08-11T04:44:11.225Z,19.88
2022-08-11T04:47:05.683Z,19.88
2022-08-11T04:50:19.118Z,19.81
2022-08-11T04:53:25.001Z,19.83
2022-08-11T04:56:35.673Z,19.93
2022-08-11T04:59:39.395Z,19.94
2022-08-11T05:02:36.783Z,20.00
2022-08-11T05:05:31.078Z,20.15
2022-08-11T05:08:37.041Z,20.21
2022-08-11T05:11:45.559Z,20.22
2022-08-11T05:14:47.113Z,20.32
2022-08-11T05:17:34.840Z,20.54
2022-08-11T05:20:19.829Z,20.68
2022-08-11T05:23:08.380Z,20.71
2022-08-11T05:26:45.124Z,20.76
2022-08-11T05:29:20.154Z,20.88
2022-08-11T05:32:17.775Z,20.96
2022-08-11T05:34:50.090Z,21.01
2022-08-11T05:37:27.459Z,21.01
2022-08-11T05:40:17.435Z,20.98
2022-08-11T05:43:08.716Z,20.93
2022-08-11T05:46:03.826Z,20.98
2022-08-11T05:48:54.422Z,21.08
2022-08-11T05:51:52.482Z,21.20
2022-08-11T05:54:41.185Z,21.29
2022-08-11T05:57:07.846Z,21.24
2022-08-11T05:59:34.596Z,21.54
2022-08-11T06:02:06.207Z,21.98
2022-08-11T06:04:33.632Z,22.32
2022-08-11T06:07:09.872Z,22.47
2022-08-11T06:09:39.274Z,22.68
2022-08-11T06:12:11.084Z,22.85
2022-08-11T06:14:43.111Z,22.84
2022-08-11T06:17:10.148Z,22.97
2022-08-11T06:19:39.948Z,23.02
2022-08-11T06:22:08.549Z,23.07
2022-08-11T06:24:36.740Z,23.27
2022-08-11T06:27:13.137Z,23.31
2022-08-11T06:29:54.740Z,23.43
2022-08-11T06:32:27.987Z,23.56
2022-08-11T06:35:19.988Z,23.84
2022-08-11T06:37:55.547Z,24.13
2022-08-11T06:40:30.153Z,24.29
2022-08-11T06:43:24.492Z,24.41
2022-08-11T06:46:04.486Z,24.66
2022-08-11T06:48:33.027Z,24.86
2022-08-11T06:51:15.109Z,24.91
2022-08-11T06:54:03.721Z,24.84
2022-08-11T06:57:18.619Z,24.82
2022-08-11T06:59:59.520Z,24.92
2022-08-11T07:02:43.425Z,25.03
2022-08-11T07:05:23.638Z,25.24
2022-08-11T07:08:34.021Z,25.41
2022-08-11T07:12:00.423Z,25.59
2022-08-11T07:14:46.811Z,25.91
2022-08-11T07:17:17.338Z,25.93
2022-08-11T07:20:14.550Z,26.13
2022-08-11T07:23:03.224Z,26.12
2022-08-11T07:25:48.208Z,26.16
2022-08-11T07:28:37.339Z,26.30
2022-08-11T07:31:29.202Z,26.41
2022-08-11T07:34:05.845Z,26.66
2022-08-11T07:36:39.467Z,26.65
2022-08-11T07:39:09.787Z,26.88
2022-08-11T07:41:36.403Z,27.06
2022-08-11T07:44:09.247Z,27.03
2022-08-11T07:47:02.146Z,27.26
2022-08-11T07:49:49.747Z,27.47
2022-08-11T07:52:33.669Z,27.68
2022-08-11T07:55:03.839Z,27.74
2022-08-11T07:58:14.278Z,27.86
2022-08-11T08:01:01.702Z,28.01
2022-08-11T08:03:54.807Z,28.28
2022-08-11T08:06:40.392Z,28.57
2022-08-11T08:09:25.987Z,28.78
2022-08-11T08:12:11.132Z,28.79
2022-08-11T08:14:56.673Z,28.82
2022-08-11T08:17:42.277Z,28.98
2022-08-11T08:20:12.854Z,29.01
2022-08-11T08:22:41.896Z,29.00
2022-08-11T08:25:11.002Z,29.17
2022-08-11T08:27:43.571Z,29.19
2022-08-11T08:30:29.292Z,29.33
2022-08-11T08:32:57.776Z,29.63
2022-08-11T08:35:24.426Z,29.72
2022-08-11T08:37:52.909Z,29.62
2022-08-11T08:40:19.469Z,29.74
2022-08-11T08:42:59.012Z,29.82
2022-08-11T08:45:27.289Z,29.67
2022-08-11T08:48:00.206Z,29.60
2022-08-11T08:50:49.448Z,29.59
2022-08-11T08:53:22.070Z,29.78
2022-08-11T08:55:50.753Z,29.88
2022-08-11T08:58:19.703Z,29.93
2022-08-11T09:00:47.254Z,30.00
2022-08-11T09:03:38.922Z,29.92
2022-08-11T09:06:00.888Z,30.14
2022-08-11T09:08:28.488Z,30.02
2022-08-11T09:11:14.615Z,30.07
2022-08-11T09:13:44.381Z,30.20
2022-08-11T09:16:11.957Z,30.31
2022-08-11T09:18:39.525Z,30.74
2022-08-11T09:21:07.205Z,30.73
2022-08-11T09:24:12.825Z,30.47
2022-08-11T09:26:57.355Z,30.27
2022-08-11T09:29:23.920Z,30.15
2022-08-11T09:31:50.853Z,30.51
2022-08-11T09:34:17.366Z,30.33
2022-08-11T09:37:02.874Z,30.48
2022-08-11T09:39:49.104Z,30.63
2022-08-11T09:42:23.351Z,30.93
2022-08-11T09:44:52.728Z,30.73
2022-08-11T09:47:30.132Z,30.72
2022-08-11T09:50:01.294Z,30.84
2022-08-11T09:52:30.159Z,31.06
2022-08-11T09:54:56.986Z,31.03
2022-08-11T09:57:42.088Z,31.14
2022-08-11T10:00:13.354Z,31.01
2022-08-11T10:02:46.411Z,31.07
2022-08-11T10:05:34.112Z,31.10
2022-08-11T10:08:01.461Z,31.03
2022-08-11T10:10:28.434Z,30.77
2022-08-11T10:13:04.420Z,30.19
2022-08-11T10:15:34.712Z,30.46
2022-08-11T10:18:28.519Z,30.90
2022-08-11T10:21:11.825Z,31.08
2022-08-11T10:24:00.927Z,31.19
2022-08-11T10:26:51.528Z,31.19
2022-08-11T10:29:59.647Z,31.76
2022-08-11T10:32:58.536Z,32.33
2022-08-11T10:35:28.776Z,32.29
2022-08-11T10:38:15.741Z,32.04
2022-08-11T10:40:46.122Z,31.64
2022-08-11T10:43:14.463Z,31.88
2022-08-11T10:46:18.779Z,32.40
2022-08-11T10:48:56.674Z,32.18
2022-08-11T10:51:51.096Z,32.17
2022-08-11T10:54:39.356Z,32.22
2022-08-11T10:57:24.567Z,32.21
2022-08-11T10:59:51.208Z,32.08
2022-08-11T11:02:18.977Z,32.33
2022-08-11T11:05:09.223Z,32.00
2022-08-11T11:07:55.432Z,32.28
2022-08-11T11:10:21.916Z,31.76
2022-08-11T11:13:14.607Z,31.28
2022-08-11T11:16:03.310Z,31.12
2022-08-11T11:18:35.970Z,31.38
2022-08-11T11:21:10.885Z,31.71
2022-08-11T11:23:41.374Z,31.87
2022-08-11T11:26:10.449Z,31.45
2022-08-11T11:28:55.805Z,31.57
2022-08-11T11:31:36.561Z,31.85
2022-08-11T11:34:17.043Z,31.91
2022-08-11T11:36:54.206Z,31.76
2022-08-11T11:39:25.591Z,31.90
2022-08-11T11:41:56.421Z,31.85
2022-08-11T11:44:24.957Z,32.01
2022-08-11T11:46:51.813Z,32.11
2022-08-11T11:51:54.913Z,32.26
2022-08-11T11:54:23.885Z,31.48
2022-08-11T11:56:53.202Z,31.31
2022-08-11T11:59:40.404Z,30.73
2022-08-11T12:02:12.212Z,31.25
2022-08-11T12:04:43.205Z,31.80
2022-08-11T12:07:28.872Z,31.51
2022-08-11T12:09:55.969Z,31.89
2022-08-11T12:12:41.156Z,32.09
2022-08-11T12:15:08.531Z,32.27
2022-08-11T12:17:35.864Z,32.27
2022-08-11T12:20:04.304Z,31.64
2022-08-11T12:22:49.831Z,31.98
2022-08-11T12:25:35.997Z,32.03
2022-08-11T12:28:02.696Z,31.84
2022-08-11T12:30:29.597Z,31.40
2022-08-11T12:32:57.163Z,31.92
2022-08-11T12:35:23.621Z,32.19
2022-08-11T12:37:54.253Z,32.56
2022-08-11T12:41:13.788Z,32.75
2022-08-11T12:43:57.186Z,32.20
2022-08-11T12:46:27.849Z,32.17
2022-08-11T12:49:17.462Z,32.22
2022-08-11T12:52:12.225Z,32.20
2022-08-11T12:55:12.570Z,32.35
2022-08-11T12:58:01.935Z,32.72
2022-08-11T13:00:48.595Z,32.55
2022-08-11T13:03:34.152Z,32.47
2022-08-11T13:06:02.645Z,32.06
2022-08-11T13:08:30.119Z,31.93
2022-08-11T13:11:17.317Z,32.17
2022-08-11T13:13:54.301Z,32.26
2022-08-11T13:16:25.402Z,31.72
2022-08-11T13:18:53.499Z,31.39
2022-08-11T13:21:21.554Z,31.63
2022-08-11T13:24:01.985Z,31.78
2022-08-11T13:26:46.818Z,31.57
2022-08-11T13:29:18.266Z,32.42
2022-08-11T13:31:45.802Z,32.80
2022-08-11T13:34:12.332Z,32.57
2022-08-11T13:36:39.060Z,32.74
2022-08-11T13:39:05.632Z,32.90
2022-08-11T13:41:39.273Z,33.41
2022-08-11T13:44:07.199Z,33.73
2022-08-11T13:46:34.213Z,33.41
2022-08-11T13:49:02.274Z,32.60
2022-08-11T13:51:34.859Z,32.60
2022-08-11T13:54:10.313Z,32.74
2022-08-11T13:56:41.111Z,31.87
2022-08-11T13:59:08.726Z,31.73
2022-08-11T14:02:20.091Z,31.78
2022-08-11T14:04:39.662Z,31.68
2022-08-11T14:07:07.967Z,32.17
2022-08-11T14:09:40.925Z,32.03
2022-08-11T14:12:29.527Z,32.48
2022-08-11T14:15:07.593Z,32.03
2022-08-11T14:17:48.089Z,32.39
2022-08-11T14:20:38.712Z,33.03
2022-08-11T14:23:04.715Z,33.21
2022-08-11T14:25:59.721Z,32.24
2022-08-11T14:28:31.071Z,32.38
2022-08-11T14:31:02.111Z,32.19
2022-08-11T14:33:58.257Z,31.72
2022-08-11T14:36:17.295Z,32.16
2022-08-11T14:38:44.218Z,32.40
2022-08-11T14:41:29.788Z,32.10
2022-08-11T14:44:15.501Z,32.43
2022-08-11T14:47:01.644Z,32.12
2022-08-11T14:49:29.570Z,32.17
2022-08-11T14:51:57.690Z,32.44
2022-08-11T14:54:48.143Z,32.72
2022-08-11T14:57:16.116Z,32.65
2022-08-11T14:59:43.692Z,32.72
2022-08-11T15:02:29.758Z,32.79
2022-08-11T15:04:58.627Z,32.61
2022-08-11T15:07:30.131Z,32.76
2022-08-11T15:10:12.769Z,32.88
2022-08-11T15:12:42.041Z,32.76
2022-08-11T15:15:28.182Z,32.33
2022-08-11T15:17:56.890Z,32.57
2022-08-11T15:20:42.871Z,32.86
2022-08-11T15:23:28.454Z,32.71
2022-08-11T15:26:08.038Z,32.53
2022-08-11T15:29:01.226Z,32.70
2022-08-11T15:31:49.338Z,32.36
2022-08-11T15:34:36.899Z,32.37
2022-08-11T15:37:26.461Z,32.59
2022-08-11T15:40:41.114Z,33.01
2022-08-11T15:43:42.319Z,33.15
2022-08-11T15:46:26.128Z,32.91
2022-08-11T15:48:58.574Z,32.38
2022-08-11T15:52:00.406Z,32.78
2022-08-11T15:54:31.232Z,32.23
2022-08-11T15:56:58.774Z,32.49
2022-08-11T15:59:44.118Z,32.27
2022-08-11T16:02:34.407Z,32.39
2022-08-11T16:05:04.121Z,32.83
2022-08-11T16:07:38.477Z,32.82
2022-08-11T16:10:18.971Z,32.86
2022-08-11T16:13:06.000Z,32.69
2022-08-11T16:15:52.159Z,33.06
2022-08-11T16:18:26.247Z,32.72
2022-08-11T16:20:55.382Z,32.24
2022-08-11T16:23:22.685Z,32.48
2022-08-11T16:27:01.289Z,32.27
2022-08-11T16:28:38.997Z,32.60
2022-08-11T16:31:10.713Z,32.41
2022-08-11T16:33:51.143Z,32.36
2022-08-11T16:36:38.012Z,32.58
2022-08-11T16:39:05.720Z,32.66
2022-08-11T16:41:52.382Z,32.40
2022-08-11T16:44:38.566Z,32.55
2022-08-11T16:47:07.175Z,31.97
2022-08-11T16:49:36.663Z,31.58
2022-08-11T16:52:05.419Z,31.63
2022-08-11T16:54:35.448Z,31.82
2022-08-11T16:57:23.966Z,31.91
2022-08-11T16:59:56.073Z,32.19
2022-08-11T17:02:43.936Z,32.12
2022-08-11T17:05:35.106Z,31.98
2022-08-11T17:08:25.823Z,31.79
2022-08-11T17:11:20.987Z,32.03
2022-08-11T17:13:50.860Z,32.21
2022-08-11T17:16:22.809Z,32.10
2022-08-11T17:18:56.810Z,31.88
2022-08-11T17:21:33.806Z,32.04
2022-08-11T17:24:09.230Z,31.71
2022-08-11T17:26:58.688Z,31.60
2022-08-11T17:29:53.974Z,31.72
2022-08-11T17:33:00.753Z,31.50
2022-08-11T17:35:39.699Z,31.57
2022-08-11T17:38:12.619Z,31.27
2022-08-11T17:41:02.219Z,31.38
2022-08-11T17:43:47.797Z,31.28
2022-08-11T17:46:34.397Z,31.04
2022-08-11T17:49:02.035Z,30.97
2022-08-11T17:51:48.138Z,30.92
2022-08-11T17:54:33.731Z,30.81
2022-08-11T17:57:21.517Z,30.93
2022-08-11T17:59:57.905Z,30.99
2022-08-11T18:02:55.238Z,30.85
2022-08-11T18:05:24.887Z,30.82
2022-08-11T18:08:12.388Z,30.79
2022-08-11T18:10:57.899Z,30.47
2022-08-11T18:13:44.020Z,30.54
2022-08-11T18:16:29.510Z,30.45
2022-08-11T18:19:14.667Z,30.29
2022-08-11T18:22:15.103Z,30.25
2022-08-11T18:25:06.034Z,30.26
2022-08-11T18:27:52.712Z,30.14
2022-08-11T18:30:38.335Z,29.97
2022-08-11T18:33:50.360Z,29.91
2022-08-11T18:36:32.195Z,29.78
2022-08-11T18:39:18.592Z,29.63
2022-08-11T18:42:04.687Z,29.57
2022-08-11T18:44:51.152Z,29.60
2022-08-11T18:47:38.936Z,29.63
2022-08-11T18:50:38.594Z,29.53
2022-08-11T18:53:25.557Z,29.35
2022-08-11T18:56:10.689Z,29.27
2022-08-11T18:58:57.207Z,29.10
2022-08-11T19:01:46.009Z,29.15
2022-08-11T19:04:31.877Z,28.92
2022-08-11T19:07:23.461Z,28.60
2022-08-11T19:10:08.980Z,28.48
2022-08-11T19:12:57.890Z,28.48
2022-08-11T19:15:43.505Z,28.38
2022-08-11T19:18:35.534Z,28.44
2022-08-11T19:21:24.198Z,28.39
2022-08-11T19:24:11.308Z,28.47
2022-08-11T19:26:56.939Z,28.34
2022-08-11T19:30:08.040Z,28.42
2022-08-11T19:32:49.058Z,28.11
2022-08-11T19:35:34.705Z,28.17
2022-08-11T19:38:20.341Z,28.13
2022-08-11T19:41:06.824Z,27.93
2022-08-11T19:43:52.934Z,27.98
2022-08-11T19:46:40.065Z,27.95
2022-08-11T19:49:25.679Z,27.89
2022-08-11T19:52:10.822Z,27.74
2022-08-11T19:54:56.402Z,27.77
2022-08-11T19:57:43.413Z,27.83
2022-08-11T20:00:39.440Z,27.71
2022-08-11T20:03:27.803Z,27.67
2022-08-11T20:06:15.054Z,27.49
2022-08-11T20:09:01.799Z,27.42
2022-08-11T20:11:50.965Z,27.44
2022-08-11T20:14:39.215Z,27.31
2022-08-11T20:17:26.497Z,27.23
2022-08-11T20:20:11.690Z,27.25
2022-08-11T20:22:57.514Z,27.07
2022-08-11T20:25:43.183Z,27.01
2022-08-11T20:28:29.899Z,26.80
2022-08-11T20:31:15.073Z,26.71
2022-08-11T20:34:01.351Z,26.43
2022-08-11T20:36:53.916Z,26.44
2022-08-11T20:39:40.634Z,26.30
2022-08-11T20:42:30.304Z,26.39
2022-08-11T20:45:17.493Z,26.28
2022-08-11T20:48:08.325Z,26.27
2022-08-11T20:50:59.918Z,26.07
2022-08-11T20:53:45.052Z,26.14
2022-08-11T20:56:30.266Z,25.89
2022-08-11T20:59:17.874Z,25.80
2022-08-11T21:02:05.455Z,25.94
2022-08-11T21:04:55.373Z,25.80
2022-08-11T21:07:42.624Z,25.87
2022-08-11T21:10:29.543Z,25.72
2022-08-11T21:13:25.687Z,25.75
2022-08-11T21:16:23.360Z,25.64
2022-08-11T21:19:13.665Z,25.66
2022-08-11T21:22:00.018Z,25.60
2022-08-11T21:24:48.630Z,25.50
2022-08-11T21:27:35.241Z,25.58
2022-08-11T21:30:21.039Z,25.46
2022-08-11T21:33:06.076Z,25.49
2022-08-11T21:35:51.813Z,25.33
2022-08-11T21:38:36.860Z,25.26
2022-08-11T21:41:22.713Z,25.23
2022-08-11T21:44:08.742Z,25.26
2022-08-11T21:46:55.250Z,25.13
2022-08-11T21:49:42.103Z,25.06
2022-08-11T21:52:27.775Z,25.22
2022-08-11T21:55:13.441Z,25.19
2022-08-11T21:57:59.185Z,25.09
2022-08-11T22:00:44.864Z,24.95
2022-08-11T22:03:30.106Z,24.93
2022-08-11T22:06:21.527Z,24.97
2022-08-11T22:09:06.328Z,24.83
2022-08-11T22:11:51.423Z,24.78
2022-08-11T22:14:56.622Z,24.71
2022-08-11T22:17:41.738Z,24.65
2022-08-11T22:20:30.064Z,24.62
2022-08-11T22:23:16.734Z,24.54
2022-08-11T22:26:07.133Z,24.44
2022-08-11T22:28:56.666Z,24.46
2022-08-11T22:31:42.313Z,24.42
2022-08-11T22:34:28.012Z,24.34
2022-08-11T22:37:27.331Z,24.33
2022-08-11T22:40:12.890Z,24.15
2022-08-11T22:42:58.033Z,24.15
2022-08-11T22:45:42.913Z,24.18
2022-08-11T22:48:28.539Z,24.24
2022-08-11T22:51:14.116Z,24.26
2022-08-11T22:53:59.806Z,24.21
2022-08-11T22:56:46.314Z,23.96
2022-08-11T22:59:31.924Z,24.00
2022-08-11T23:02:17.288Z,23.92
2022-08-11T23:05:02.335Z,23.87
2022-08-11T23:07:51.365Z,23.94
2022-08-11T23:10:38.827Z,23.83
2022-08-11T23:13:24.916Z,23.76
2022-08-11T23:16:11.514Z,23.61
2022-08-11T23:18:56.788Z,23.51
2022-08-11T23:21:42.022Z,23.54
2022-08-11T23:24:27.870Z,23.58
2022-08-11T23:27:13.198Z,23.46
2022-08-11T23:29:59.433Z,23.33
2022-08-11T23:32:45.471Z,23.32
2022-08-11T23:35:40.229Z,23.26
2022-08-11T23:38:36.776Z,23.29
2022-08-11T23:41:22.540Z,23.32
2022-08-11T23:44:08.219Z,23.32
2022-08-11T23:46:53.831Z,23.26
2022-08-11T23:49:38.861Z,23.17
2022-08-11T23:52:23.889Z,23.03
2022-08-11T23:55:08.968Z,22.92
2022-08-11T23:57:54.559Z,22.89
